createdAt,value
2023-04-16T00:02:34.709Z,4.35
2023-04-16T00:07:37.220Z,3.67
2023-04-16T00:12:39.717Z,4.63
2023-04-16T00:17:42.215Z,4.18
2023-04-16T00:22:44.675Z,4.72
2023-04-16T00:27:47.092Z,5.25
2023-04-16T00:32:49.503Z,5.30
2023-04-16T00:37:51.937Z,4.45
2023-04-16T00:42:54.382Z,5.05
2023-04-16T00:47:59.210Z,4.82
2023-04-16T00:53:03.027Z,5.03
2023-04-16T00:58:05.582Z,5.90
2023-04-16T01:03:08.233Z,6.53
2023-04-16T01:08:18.709Z,5.95
2023-04-16T01:13:21.351Z,5.35
2023-04-16T01:18:24.358Z,4.53
2023-04-16T01:23:26.855Z,5.13
2023-04-16T01:28:29.336Z,4.95
2023-04-16T01:33:32.002Z,5.35
2023-04-16T01:38:34.617Z,5.25
2023-04-16T01:43:39.678Z,5.07
2023-04-16T01:53:45.669Z,5.47
2023-04-16T01:58:48.333Z,5.18
2023-04-16T02:03:53.608Z,6.60
2023-04-16T02:08:56.082Z,5.13
2023-04-16T02:13:58.420Z,5.05
2023-04-16T02:19:02.319Z,4.50
2023-04-16T02:24:08.463Z,4.70
2023-04-16T02:29:11.608Z,4.15
2023-04-16T02:34:19.006Z,3.42
2023-04-16T02:39:21.507Z,2.72
2023-04-16T02:44:23.837Z,2.80
2023-04-16T02:49:26.201Z,2.60
2023-04-16T02:54:28.577Z,3.05
2023-04-16T02:59:31.049Z,2.15
2023-04-16T03:04:33.816Z,2.45
2023-04-16T03:09:36.193Z,2.20
2023-04-16T03:14:38.569Z,1.80
2023-04-16T03:19:40.929Z,2.13
2023-04-16T03:24:43.299Z,1.95
2023-04-16T03:29:45.726Z,2.00
2023-04-16T03:34:48.566Z,2.03
2023-04-16T03:39:51.109Z,2.03
2023-04-16T03:44:57.661Z,1.98
2023-04-16T03:50:00.080Z,2.00
2023-04-16T03:55:04.434Z,1.98
2023-04-16T04:00:09.100Z,2.35
2023-04-16T04:05:26.294Z,1.98
2023-04-16T04:10:28.785Z,1.77
2023-04-16T04:15:31.794Z,2.00
2023-04-16T04:20:34.451Z,2.83
2023-04-16T04:25:39.540Z,2.60
2023-04-16T04:30:42.690Z,2.70
2023-04-16T04:35:45.760Z,2.63
2023-04-16T04:40:49.924Z,1.98
2023-04-16T04:45:54.517Z,1.90
2023-04-16T04:50:57.111Z,2.15
2023-04-16T04:56:09.285Z,1.80
2023-04-16T05:01:15.191Z,2.20
2023-04-16T05:06:17.847Z,2.00
2023-04-16T05:11:20.190Z,2.22
2023-04-16T05:16:22.598Z,2.28
2023-04-16T05:21:26.721Z,1.98
2023-04-16T05:26:29.131Z,2.13
2023-04-16T05:31:31.560Z,2.20
2023-04-16T05:36:34.021Z,1.77
2023-04-16T05:41:36.486Z,1.95
2023-04-16T05:46:39.012Z,1.90
2023-04-16T05:51:41.601Z,3.08
2023-04-16T05:56:44.004Z,2.13
2023-04-16T06:01:46.706Z,2.13
2023-04-16T06:06:49.055Z,4.30
2023-04-16T06:11:51.418Z,2.00
2023-04-16T06:16:53.932Z,2.40
2023-04-16T06:21:57.179Z,2.50
2023-04-16T06:26:59.592Z,2.33
2023-04-16T06:32:02.372Z,2.10
2023-04-16T06:37:05.004Z,1.55
2023-04-16T06:42:07.451Z,1.67
2023-04-16T06:47:10.149Z,1.73
2023-04-16T06:52:12.968Z,2.95
2023-04-16T06:57:15.352Z,2.10
2023-04-16T07:02:17.862Z,2.10
2023-04-16T07:07:20.521Z,2.28
2023-04-16T07:12:23.221Z,1.70
2023-04-16T07:17:25.979Z,1.85
2023-04-16T07:22:28.418Z,1.73
2023-04-16T07:27:30.778Z,2.25
2023-04-16T07:32:33.360Z,1.80
2023-04-16T07:37:35.685Z,1.95
2023-04-16T07:42:38.129Z,3.60
2023-04-16T07:47:40.736Z,1.70
2023-04-16T07:53:01.564Z,3.70
2023-04-16T07:58:04.094Z,3.17
2023-04-16T08:03:06.715Z,2.67
2023-04-16T08:08:09.332Z,1.83
2023-04-16T08:13:11.780Z,1.98
2023-04-16T08:18:15.918Z,2.05
2023-04-16T08:23:18.401Z,1.35
2023-04-16T08:28:20.834Z,1.80
2023-04-16T08:33:23.284Z,1.75
2023-04-16T08:38:26.676Z,1.52
2023-04-16T08:43:34.309Z,1.60
2023-04-16T08:48:37.957Z,1.70
2023-04-16T08:53:52.320Z,1.60
2023-04-16T08:58:55.681Z,1.90
2023-04-16T09:03:59.655Z,1.85
2023-04-16T09:09:04.939Z,1.95
2023-04-16T09:14:11.426Z,2.15
2023-04-16T09:19:15.095Z,1.85
2023-04-16T09:24:18.056Z,2.20
2023-04-16T09:29:36.522Z,1.55
2023-04-16T09:34:58.813Z,1.70
2023-04-16T09:40:04.162Z,1.70
2023-04-16T09:45:09.665Z,1.75
2023-04-16T09:50:20.609Z,1.80
2023-04-16T09:55:24.144Z,6.40
2023-04-16T10:00:26.683Z,5.20
2023-04-16T10:05:29.088Z,3.08
2023-04-16T10:10:32.709Z,3.10
2023-04-16T10:15:35.151Z,3.28
2023-04-16T10:20:37.834Z,2.70
2023-04-16T10:25:41.600Z,1.95
2023-04-16T10:30:55.763Z,1.92
2023-04-16T10:36:14.501Z,4.05
2023-04-16T10:41:17.059Z,5.85
2023-04-16T10:46:23.550Z,2.67
2023-04-16T10:51:36.765Z,2.30
2023-04-16T10:56:39.113Z,3.38
2023-04-16T11:01:45.746Z,4.95
2023-04-16T11:07:04.813Z,2.17
2023-04-16T11:12:08.642Z,1.80
2023-04-16T11:22:17.580Z,2.42
2023-04-16T11:27:20.089Z,2.70
2023-04-16T11:32:23.076Z,2.00
2023-04-16T11:37:55.932Z,2.03
2023-04-16T11:43:03.219Z,1.83
2023-04-16T11:48:05.702Z,1.85
2023-04-16T11:53:08.031Z,1.65
2023-04-16T11:58:16.648Z,1.75
2023-04-16T12:03:37.909Z,1.63
2023-04-16T12:08:40.633Z,1.52
2023-04-16T12:13:43.053Z,1.50
2023-04-16T12:19:03.115Z,1.67
2023-04-16T12:24:07.037Z,1.20
2023-04-16T12:29:26.226Z,1.30
2023-04-16T12:34:48.065Z,1.58
2023-04-16T12:39:51.208Z,1.10
2023-04-16T12:44:53.666Z,1.13
2023-04-16T12:49:58.106Z,1.30
2023-04-16T13:00:06.919Z,1.10
2023-04-16T13:05:09.661Z,0.93
2023-04-16T13:10:12.651Z,1.23
2023-04-16T13:15:15.077Z,1.25
2023-04-16T13:20:17.620Z,1.20
2023-04-16T13:25:20.047Z,1.40
2023-04-16T13:30:22.460Z,1.63
2023-04-16T13:35:24.890Z,1.58
2023-04-16T13:40:27.402Z,1.52
2023-04-16T13:45:29.861Z,1.20
2023-04-16T13:50:32.361Z,1.10
2023-04-16T13:55:34.758Z,1.88
2023-04-16T14:00:38.004Z,1.90
2023-04-16T14:05:41.574Z,1.60
2023-04-16T14:10:44.045Z,1.65
2023-04-16T14:15:46.830Z,1.20
2023-04-16T14:20:49.323Z,1.50
2023-04-16T14:25:51.683Z,1.25
2023-04-16T14:30:54.060Z,1.60
2023-04-16T14:35:56.402Z,2.85
2023-04-16T14:41:00.539Z,2.60
2023-04-16T14:46:05.169Z,2.75
2023-04-16T14:56:11.529Z,1.40
2023-04-16T15:01:15.126Z,1.73
2023-04-16T15:06:17.557Z,1.95
2023-04-16T15:11:20.012Z,2.13
2023-04-16T15:16:22.574Z,1.80
2023-04-16T15:21:26.784Z,2.70
2023-04-16T15:26:30.357Z,2.42
2023-04-16T15:31:32.772Z,2.65
2023-04-16T15:36:35.148Z,2.20
2023-04-16T15:41:47.206Z,2.33
2023-04-16T15:47:00.438Z,2.75
2023-04-16T15:52:03.455Z,2.20
2023-04-16T15:57:05.825Z,2.15
2023-04-16T16:02:08.389Z,2.55
2023-04-16T16:07:11.468Z,2.70
2023-04-16T16:12:14.477Z,2.90
2023-04-16T16:17:17.015Z,2.40
2023-04-16T16:22:20.854Z,3.00
2023-04-16T16:27:23.504Z,2.33
2023-04-16T16:32:25.963Z,2.47
2023-04-16T16:37:29.450Z,2.95
2023-04-16T16:42:32.046Z,4.00
2023-04-16T16:47:34.493Z,3.20
2023-04-16T16:52:36.837Z,3.20
2023-04-16T16:57:39.629Z,2.88
2023-04-16T17:02:43.553Z,2.85
2023-04-16T17:07:46.586Z,2.40
2023-04-16T17:12:49.848Z,2.05
2023-04-16T17:17:52.270Z,1.90
2023-04-16T17:22:54.713Z,2.17
2023-04-16T17:27:57.174Z,2.72
2023-04-16T17:32:59.656Z,2.50
2023-04-16T17:38:02.050Z,1.88
2023-04-16T17:43:05.178Z,1.77
2023-04-16T17:48:07.688Z,2.00
2023-04-16T17:53:10.148Z,2.65
2023-04-16T17:58:12.736Z,1.83
2023-04-16T18:03:15.389Z,2.92
2023-04-16T18:08:18.051Z,2.20
2023-04-16T18:13:20.442Z,2.70
2023-04-16T18:18:22.917Z,3.25
2023-04-16T18:23:25.750Z,2.88
2023-04-16T18:28:46.687Z,1.83
2023-04-16T18:33:57.618Z,1.98
2023-04-16T18:39:02.393Z,2.03
2023-04-16T18:44:05.218Z,2.28
2023-04-16T18:49:07.766Z,2.22
2023-04-16T18:54:10.186Z,2.30
2023-04-16T18:59:12.834Z,2.08
2023-04-16T19:04:15.356Z,1.90
2023-04-16T19:09:36.334Z,2.08
2023-04-16T19:14:38.748Z,1.58
2023-04-16T19:19:41.148Z,2.38
2023-04-16T19:24:43.533Z,2.03
2023-04-16T19:29:47.009Z,2.30
2023-04-16T19:34:49.393Z,2.50
2023-04-16T19:39:51.791Z,2.30
2023-04-16T19:44:54.490Z,2.13
2023-04-16T19:49:56.935Z,2.50
2023-04-16T19:54:59.463Z,3.22
2023-04-16T20:00:21.208Z,4.45
2023-04-16T20:05:26.640Z,4.18
2023-04-16T20:10:29.636Z,4.47
2023-04-16T20:15:32.018Z,4.65
2023-04-16T20:20:36.732Z,4.85
2023-04-16T20:25:42.938Z,3.53
2023-04-16T20:30:45.354Z,5.20
2023-04-16T20:35:47.807Z,3.90
2023-04-16T20:40:58.334Z,3.65
2023-04-16T20:46:03.398Z,4.63
2023-04-16T20:51:07.922Z,5.32
2023-04-16T20:56:12.421Z,5.38
2023-04-16T21:01:14.873Z,5.22
2023-04-16T21:06:18.107Z,5.80
2023-04-16T21:11:21.081Z,6.57
2023-04-16T21:16:23.561Z,6.05
2023-04-16T21:21:27.694Z,13.60
2023-04-16T21:26:30.119Z,15.32
2023-04-16T21:31:32.695Z,9.88
2023-04-16T21:36:35.389Z,7.82
2023-04-16T21:41:37.882Z,8.15
2023-04-16T21:46:40.368Z,8.55
2023-04-16T21:51:43.324Z,9.38
2023-04-16T21:56:45.747Z,8.93
2023-04-16T22:01:48.109Z,9.43
2023-04-16T22:06:56.103Z,9.02
2023-04-16T22:11:59.264Z,8.50
2023-04-16T22:17:02.170Z,6.18
2023-04-16T22:22:04.801Z,8.23
2023-04-16T22:27:07.134Z,7.88
2023-04-16T22:32:09.564Z,7.32
2023-04-16T22:37:12.001Z,6.05
2023-04-16T22:42:14.288Z,8.02
2023-04-16T22:47:16.748Z,9.82
2023-04-16T22:52:19.207Z,8.30
2023-04-16T22:57:25.111Z,9.20
2023-04-16T23:02:27.636Z,11.80
2023-04-16T23:07:30.133Z,10.98
2023-04-16T23:12:32.613Z,11.60
2023-04-16T23:17:35.451Z,10.45
2023-04-16T23:22:38.376Z,12.15
2023-04-16T23:27:40.964Z,12.75
2023-04-16T23:32:43.248Z,12.60
2023-04-16T23:37:45.835Z,12.13
2023-04-16T23:42:48.209Z,12.18
2023-04-16T23:47:51.967Z,14.20
2023-04-16T23:52:54.412Z,12.57
2023-04-16T23:57:56.788Z,11.95
